createdAt,value
2022-11-30T00:03:00.451Z,101968.03
2022-11-30T00:06:10.209Z,101974.19
2022-11-30T00:09:11.756Z,101967.19
2022-11-30T00:12:13.296Z,101963.69
2022-11-30T00:15:17.441Z,101975.16
2022-11-30T00:18:18.960Z,101977.78
2022-11-30T00:21:20.623Z,101976.88
2022-11-30T00:24:22.172Z,101986.56
2022-11-30T00:27:23.748Z,101981.31
2022-11-30T00:30:25.347Z,101991.84
2022-11-30T00:33:27.632Z,101981.31
2022-11-30T00:36:29.187Z,101986.59
2022-11-30T00:39:35.323Z,101993.63
2022-11-30T00:42:37.283Z,101991.03
2022-11-30T00:45:38.842Z,101991.97
2022-11-30T00:48:41.231Z,101990.25
2022-11-30T00:51:42.848Z,101992.88
2022-11-30T00:54:44.600Z,101995.56
2022-11-30T00:57:46.286Z,101984.16
2022-11-30T01:00:48.464Z,101985.97
2022-11-30T01:03:50.061Z,101985.97
2022-11-30T01:06:51.571Z,101995.63
2022-11-30T01:09:53.127Z,101988.59
2022-11-30T01:12:54.728Z,101995.63
2022-11-30T01:15:56.423Z,101996.56
2022-11-30T01:18:58.309Z,101990.41
2022-11-30T01:21:59.911Z,101998.31
2022-11-30T01:25:01.661Z,101991.28
2022-11-30T01:28:03.257Z,101981.63
2022-11-30T01:31:07.767Z,101980.75
2022-11-30T01:34:10.084Z,101991.28
2022-11-30T01:37:11.664Z,101986.94
2022-11-30T01:40:13.376Z,101987.81
2022-11-30T01:43:19.919Z,101993.09
2022-11-30T01:46:32.411Z,101988.75
2022-11-30T01:49:41.641Z,101996.66
2022-11-30T01:52:46.922Z,101996.72
2022-11-30T01:55:49.347Z,101996.75
2022-11-30T01:58:51.107Z,101995.84
2022-11-30T02:01:53.938Z,101997.59
2022-11-30T02:04:55.624Z,101997.59
2022-11-30T02:07:57.641Z,101987.97
2022-11-30T02:11:04.403Z,101991.50
2022-11-30T02:14:27.594Z,101981.88
2022-11-30T02:17:53.784Z,101989.81
2022-11-30T02:21:03.833Z,101990.72
2022-11-30T02:24:14.401Z,101990.72
2022-11-30T02:27:24.179Z,101990.72
2022-11-30T02:30:26.348Z,101997.72
2022-11-30T02:33:31.391Z,101994.19
2022-11-30T02:36:33.333Z,101996.81
2022-11-30T02:39:34.871Z,101997.72
2022-11-30T02:42:36.668Z,101988.91
2022-11-30T02:46:00.198Z,101996.81
2022-11-30T02:49:17.330Z,101991.53
2022-11-30T02:52:22.403Z,102000.38
2022-11-30T02:55:23.967Z,101998.63
2022-11-30T02:58:25.858Z,102001.25
2022-11-30T03:01:27.456Z,102005.63
2022-11-30T03:04:29.049Z,102007.38
2022-11-30T03:07:30.954Z,102008.25
2022-11-30T03:10:32.574Z,102008.25
2022-11-30T03:13:34.523Z,102014.38
2022-11-30T03:16:37.503Z,102015.25
2022-11-30T03:19:39.059Z,102021.38
2022-11-30T03:22:40.659Z,102020.47
2022-11-30T03:25:42.180Z,102035.38
2022-11-30T03:28:43.774Z,102029.28
2022-11-30T03:31:45.306Z,102033.69
2022-11-30T03:34:46.985Z,102031.94
2022-11-30T03:37:48.683Z,102027.53
2022-11-30T03:40:50.241Z,102025.78
2022-11-30T03:43:51.868Z,102035.44
2022-11-30T03:46:53.471Z,102031.06
2022-11-30T03:49:55.029Z,102036.38
2022-11-30T03:52:56.801Z,102048.66
2022-11-30T03:56:00.965Z,102039.03
2022-11-30T03:59:02.585Z,102033.72
2022-11-30T04:02:04.161Z,102041.69
2022-11-30T04:05:06.161Z,102049.59
2022-11-30T04:08:07.729Z,102052.22
2022-11-30T04:11:10.235Z,102054.84
2022-11-30T04:14:11.799Z,102059.25
2022-11-30T04:17:13.394Z,102063.63
2022-11-30T04:20:15.060Z,102072.41
2022-11-30T04:23:16.683Z,102073.34
2022-11-30T04:26:18.378Z,102076.84
2022-11-30T04:29:19.920Z,102072.41
2022-11-30T04:32:21.495Z,102074.16
2022-11-30T04:35:23.105Z,102072.41
2022-11-30T04:38:25.148Z,102066.22
2022-11-30T04:41:26.733Z,102068.84
2022-11-30T04:44:28.307Z,102067.94
2022-11-30T04:47:29.861Z,102075.78
2022-11-30T04:50:31.548Z,102071.34
2022-11-30T04:53:34.182Z,102076.63
2022-11-30T04:56:35.702Z,102074.00
2022-11-30T04:59:37.232Z,102074.84
2022-11-30T05:02:38.850Z,102079.22
2022-11-30T05:05:40.356Z,102083.59
2022-11-30T05:08:41.908Z,102080.03
2022-11-30T05:11:43.576Z,102087.09
2022-11-30T05:14:45.576Z,102085.31
2022-11-30T05:17:47.515Z,102083.56
2022-11-30T05:20:50.936Z,102086.19
2022-11-30T05:23:52.744Z,102090.56
2022-11-30T05:26:54.416Z,102095.00
2022-11-30T05:29:55.972Z,102096.78
2022-11-30T05:32:57.506Z,102095.06
2022-11-30T05:35:59.066Z,102100.38
2022-11-30T05:39:00.813Z,102103.06
2022-11-30T05:42:02.354Z,102105.69
2022-11-30T05:45:04.269Z,102106.59
2022-11-30T05:48:06.605Z,102110.06
2022-11-30T05:51:13.144Z,102108.31
2022-11-30T05:54:14.699Z,102113.59
2022-11-30T05:57:16.363Z,102123.25
2022-11-30T06:00:18.444Z,102118.84
2022-11-30T06:03:20.024Z,102115.34
2022-11-30T06:06:22.529Z,102118.91
2022-11-30T06:09:24.187Z,102112.81
2022-11-30T06:12:25.744Z,102124.25
2022-11-30T06:15:27.295Z,102133.94
2022-11-30T06:18:29.271Z,102124.31
2022-11-30T06:21:30.844Z,102127.81
2022-11-30T06:24:32.358Z,102130.44
2022-11-30T06:27:33.907Z,102131.38
2022-11-30T06:30:35.752Z,102141.03
2022-11-30T06:33:37.281Z,102133.13
2022-11-30T06:36:39.100Z,102127.53
2022-11-30T06:40:05.412Z,102132.44
2022-11-30T06:43:02.191Z,102135.97
2022-11-30T06:46:05.299Z,102136.88
2022-11-30T06:49:07.695Z,102144.00
2022-11-30T06:52:09.217Z,102141.41
2022-11-30T06:55:10.753Z,102144.09
2022-11-30T06:58:12.420Z,102140.63
2022-11-30T07:01:15.363Z,102140.41
2022-11-30T07:04:17.181Z,102142.19
2022-11-30T07:07:18.854Z,102145.75
2022-11-30T07:10:22.876Z,102150.19
2022-11-30T07:13:24.432Z,102153.75
2022-11-30T07:16:26.134Z,102153.81
2022-11-30T07:19:27.716Z,102159.97
2022-11-30T07:22:29.261Z,102161.09
2022-11-30T07:25:49.208Z,102162.38
2022-11-30T07:28:54.829Z,102173.03
2022-11-30T07:31:56.741Z,102177.56
2022-11-30T07:34:58.392Z,102169.84
2022-11-30T07:38:03.166Z,102179.66
2022-11-30T07:41:08.857Z,102184.19
2022-11-30T07:44:11.623Z,102178.16
2022-11-30T07:47:13.387Z,102184.41
2022-11-30T07:50:14.926Z,102187.97
2022-11-30T07:53:17.020Z,102185.41
2022-11-30T07:56:20.108Z,102184.59
2022-11-30T07:59:21.865Z,102192.53
2022-11-30T08:02:23.482Z,102192.56
2022-11-30T08:05:25.087Z,102190.88
2022-11-30T08:08:29.767Z,102192.63
2022-11-30T08:11:34.816Z,102197.09
2022-11-30T08:14:56.541Z,102204.13
2022-11-30T08:18:00.231Z,102201.50
2022-11-30T08:21:04.268Z,102204.13
2022-11-30T08:24:06.161Z,102217.09
2022-11-30T08:27:07.771Z,102215.25
2022-11-30T08:30:09.813Z,102220.50
2022-11-30T08:33:11.403Z,102213.56
2022-11-30T08:36:15.547Z,102213.56
2022-11-30T08:39:17.137Z,102216.22
2022-11-30T08:42:18.673Z,102222.38
2022-11-30T08:45:20.294Z,102227.66
2022-11-30T08:48:21.893Z,102230.28
2022-11-30T08:51:23.467Z,102232.06
2022-11-30T08:54:26.354Z,102238.25
2022-11-30T08:57:27.971Z,102237.41
2022-11-30T09:00:29.603Z,102237.41
2022-11-30T09:03:31.122Z,102245.31
2022-11-30T09:06:32.683Z,102241.78
2022-11-30T09:09:34.243Z,102256.72
2022-11-30T09:12:37.470Z,102258.47
2022-11-30T09:15:39.101Z,102255.84
2022-11-30T09:18:41.054Z,102256.69
2022-11-30T09:21:45.456Z,102268.94
2022-11-30T09:24:51.569Z,102267.19
2022-11-30T09:27:53.092Z,102262.81
2022-11-30T09:30:54.688Z,102266.31
2022-11-30T09:33:58.013Z,102266.31
2022-11-30T09:36:59.549Z,102267.19
2022-11-30T09:40:01.073Z,102261.00
2022-11-30T09:43:16.086Z,102269.75
2022-11-30T09:46:18.203Z,102267.94
2022-11-30T09:49:24.739Z,102267.03
2022-11-30T09:52:49.846Z,102266.97
2022-11-30T09:55:53.095Z,102268.72
2022-11-30T09:59:19.165Z,102264.31
2022-11-30T10:02:22.523Z,102277.06
2022-11-30T10:05:34.308Z,102266.97
2022-11-30T10:08:50.495Z,102267.88
2022-11-30T10:11:52.514Z,102259.19
2022-11-30T10:15:09.140Z,102266.47
2022-11-30T10:18:28.674Z,102274.69
2022-11-30T10:21:37.535Z,102265.28
2022-11-30T10:25:02.109Z,102267.28
2022-11-30T10:28:45.674Z,102268.38
2022-11-30T10:31:43.355Z,102265.00
2022-11-30T10:34:51.222Z,102266.84
2022-11-30T10:37:53.699Z,102266.94
2022-11-30T10:41:11.713Z,102265.31
2022-11-30T10:44:23.030Z,102266.28
2022-11-30T10:47:28.664Z,102265.47
2022-11-30T10:50:31.645Z,102262.88
2022-11-30T10:53:34.324Z,102269.06
2022-11-30T10:56:35.830Z,102269.97
2022-11-30T10:59:50.667Z,102269.06
2022-11-30T11:02:52.633Z,102264.66
2022-11-30T11:06:24.686Z,102264.72
2022-11-30T11:09:34.120Z,102262.97
2022-11-30T11:12:35.691Z,102262.97
2022-11-30T11:15:37.298Z,102262.97
2022-11-30T11:18:56.183Z,102265.59
2022-11-30T11:21:57.856Z,102264.72
2022-11-30T11:25:21.506Z,102262.06
2022-11-30T11:28:25.189Z,102262.03
2022-11-30T11:31:37.898Z,102258.50
2022-11-30T11:34:39.519Z,102266.38
2022-11-30T11:37:51.057Z,102258.44
2022-11-30T11:40:58.368Z,102264.53
2022-11-30T11:44:02.496Z,102255.69
2022-11-30T11:47:07.660Z,102254.78
2022-11-30T11:50:12.299Z,102259.13
2022-11-30T11:53:22.811Z,102253.81
2022-11-30T11:56:31.985Z,102251.22
2022-11-30T11:59:47.966Z,102253.84
2022-11-30T12:03:14.300Z,102257.41
2022-11-30T12:06:18.831Z,102256.53
2022-11-30T12:09:33.966Z,102251.81
2022-11-30T12:12:38.984Z,102245.22
2022-11-30T12:15:53.167Z,102257.53
2022-11-30T12:19:04.024Z,102259.47
2022-11-30T12:22:44.043Z,102262.16
2022-11-30T12:25:55.029Z,102272.72
2022-11-30T12:29:19.323Z,102261.38
2022-11-30T12:32:46.311Z,102272.84
2022-11-30T12:36:24.776Z,102274.75
2022-11-30T12:39:32.613Z,102273.13
2022-11-30T12:42:52.582Z,102275.00
2022-11-30T12:46:07.695Z,102275.97
2022-11-30T12:49:12.209Z,102284.78
2022-11-30T12:52:16.616Z,102281.22
2022-11-30T12:55:27.030Z,102278.50
2022-11-30T12:58:40.946Z,102283.75
2022-11-30T13:02:13.297Z,102290.44
2022-11-30T13:05:22.807Z,102293.00
2022-11-30T13:08:30.503Z,102292.13
2022-11-30T13:11:39.239Z,102294.88
2022-11-30T13:14:41.536Z,102293.16
2022-11-30T13:17:44.651Z,102288.81
2022-11-30T13:21:10.885Z,102299.53
2022-11-30T13:24:44.497Z,102294.34
2022-11-30T13:28:02.468Z,102304.03
2022-11-30T13:31:16.623Z,102301.44
2022-11-30T13:34:27.759Z,102297.09
2022-11-30T13:37:30.456Z,102300.59
2022-11-30T13:40:32.593Z,102305.88
2022-11-30T13:43:47.937Z,102309.44
2022-11-30T13:46:52.042Z,102309.50
2022-11-30T13:50:07.771Z,102314.81
2022-11-30T13:53:20.470Z,102308.72
2022-11-30T13:56:22.000Z,102314.88
2022-11-30T13:59:23.637Z,102313.13
2022-11-30T14:05:53.748Z,102316.78
2022-11-30T14:08:55.278Z,102310.63
2022-11-30T14:11:56.829Z,102314.13
2022-11-30T14:14:59.630Z,102322.84
2022-11-30T14:18:05.269Z,102325.53
2022-11-30T14:21:31.530Z,102329.13
2022-11-30T14:24:33.729Z,102329.22
2022-11-30T14:27:36.667Z,102319.63
2022-11-30T14:30:39.843Z,102327.59
2022-11-30T14:33:56.338Z,102326.72
2022-11-30T14:37:12.516Z,102332.03
2022-11-30T14:40:19.129Z,102325.94
2022-11-30T14:43:21.182Z,102325.88
2022-11-30T14:46:26.730Z,102325.72
2022-11-30T14:49:28.312Z,102327.31
2022-11-30T14:52:42.032Z,102321.19
2022-11-30T14:55:56.260Z,102326.41
2022-11-30T14:59:28.665Z,102329.88
2022-11-30T15:02:38.819Z,102336.94
2022-11-30T15:05:43.138Z,102335.19
2022-11-30T15:08:52.254Z,102333.44
2022-11-30T15:11:54.307Z,102328.22
2022-11-30T15:15:14.684Z,102332.41
2022-11-30T15:18:18.850Z,102339.50
2022-11-30T15:21:31.647Z,102333.34
2022-11-30T15:24:33.168Z,102329.78
2022-11-30T15:27:34.837Z,102329.78
2022-11-30T15:30:40.662Z,102331.53
2022-11-30T15:33:46.152Z,102331.56
2022-11-30T15:36:48.095Z,102342.13
2022-11-30T15:39:54.256Z,102335.16
2022-11-30T15:42:55.937Z,102338.19
2022-11-30T15:45:58.865Z,102340.69
2022-11-30T15:49:12.598Z,102348.59
2022-11-30T15:52:17.864Z,102352.13
2022-11-30T15:55:46.392Z,102358.28
2022-11-30T15:59:05.101Z,102366.34
2022-11-30T16:02:22.348Z,102358.47
2022-11-30T16:05:25.759Z,102362.09
2022-11-30T16:08:28.028Z,102349.81
2022-11-30T16:11:29.592Z,102356.00
2022-11-30T16:14:31.608Z,102367.38
2022-11-30T16:17:33.173Z,102371.63
2022-11-30T16:20:34.735Z,102375.91
2022-11-30T16:23:36.312Z,102378.50
2022-11-30T16:26:53.359Z,102376.75
2022-11-30T16:29:55.345Z,102380.28
2022-11-30T16:32:57.457Z,102385.56
2022-11-30T16:36:07.640Z,102383.78
2022-11-30T16:39:12.294Z,102380.31
2022-11-30T16:42:14.181Z,102378.59
2022-11-30T16:45:19.715Z,102384.81
2022-11-30T16:48:21.239Z,102384.03
2022-11-30T16:51:27.418Z,102386.75
2022-11-30T16:54:29.068Z,102385.88
2022-11-30T16:57:30.651Z,102384.13
2022-11-30T17:00:33.022Z,102387.72
2022-11-30T17:03:36.070Z,102383.34
2022-11-30T17:06:37.810Z,102390.41
2022-11-30T17:09:39.402Z,102393.09
2022-11-30T17:12:41.131Z,102393.09
2022-11-30T17:15:42.690Z,102393.97
2022-11-30T17:18:44.480Z,102397.47
2022-11-30T17:21:46.136Z,102397.41
2022-11-30T17:24:47.943Z,102399.97
2022-11-30T17:27:50.768Z,102404.34
2022-11-30T17:30:52.376Z,102406.94
2022-11-30T17:33:54.014Z,102409.53
2022-11-30T17:36:56.855Z,102413.94
2022-11-30T17:39:59.017Z,102407.75
2022-11-30T17:43:00.572Z,102414.78
2022-11-30T17:46:07.442Z,102416.56
2022-11-30T17:49:08.976Z,102413.06
2022-11-30T17:52:10.545Z,102413.16
2022-11-30T17:55:12.108Z,102421.06
2022-11-30T17:58:13.759Z,102416.53
2022-11-30T18:01:18.150Z,102415.56
2022-11-30T18:04:19.743Z,102422.59
2022-11-30T18:07:21.512Z,102427.00
2022-11-30T18:10:23.141Z,102433.25
2022-11-30T18:13:24.906Z,102429.78
2022-11-30T18:16:29.531Z,102427.94
2022-11-30T18:19:31.133Z,102433.16
2022-11-30T18:22:32.951Z,102438.41
2022-11-30T18:25:35.144Z,102440.16
2022-11-30T18:28:36.719Z,102437.56
2022-11-30T18:31:38.318Z,102444.59
2022-11-30T18:34:40.262Z,102447.28
2022-11-30T18:37:41.784Z,102446.34
2022-11-30T18:40:43.860Z,102447.16
2022-11-30T18:43:45.513Z,102455.91
2022-11-30T18:46:47.250Z,102455.81
2022-11-30T18:49:49.367Z,102464.53
2022-11-30T18:52:50.869Z,102464.47
2022-11-30T18:55:52.463Z,102468.88
2022-11-30T18:59:03.110Z,102470.69
2022-11-30T19:02:06.034Z,102465.41
2022-11-30T19:05:13.189Z,102469.84
2022-11-30T19:08:15.218Z,102469.00
2022-11-30T19:11:17.746Z,102470.72
2022-11-30T19:14:19.351Z,102470.69
2022-11-30T19:17:20.917Z,102473.25
2022-11-30T19:20:23.265Z,102475.88
2022-11-30T19:23:24.976Z,102482.97
2022-11-30T19:26:28.427Z,102468.97
2022-11-30T19:29:30.115Z,102482.16
2022-11-30T19:32:33.290Z,102484.91
2022-11-30T19:35:34.937Z,102487.63
2022-11-30T19:38:36.543Z,102482.47
2022-11-30T19:41:38.106Z,102489.50
2022-11-30T19:44:40.403Z,102493.00
2022-11-30T19:47:41.960Z,102498.19
2022-11-30T19:50:43.600Z,102503.47
2022-11-30T19:53:45.213Z,102500.81
2022-11-30T19:56:47.204Z,102493.84
2022-11-30T19:59:48.738Z,102500.09
2022-11-30T20:02:51.346Z,102499.22
2022-11-30T20:05:53.271Z,102508.91
2022-11-30T20:08:55.985Z,102500.13
2022-11-30T20:11:57.512Z,102502.63
2022-11-30T20:14:59.056Z,102492.00
2022-11-30T20:18:00.611Z,102503.47
2022-11-30T20:21:25.607Z,102501.75
2022-11-30T20:24:27.136Z,102497.47
2022-11-30T20:27:28.803Z,102500.25
2022-11-30T20:30:30.463Z,102501.25
2022-11-30T20:33:32.040Z,102499.53
2022-11-30T20:36:34.174Z,102504.84
2022-11-30T20:39:37.179Z,102499.53
2022-11-30T20:42:40.390Z,102502.09
2022-11-30T20:45:41.880Z,102504.72
2022-11-30T20:48:43.873Z,102503.78
2022-11-30T20:51:45.783Z,102506.31
2022-11-30T20:54:47.580Z,102507.13
2022-11-30T20:57:49.489Z,102514.09
2022-11-30T21:00:51.334Z,102504.38
2022-11-30T21:03:53.450Z,102508.75
2022-11-30T21:06:55.198Z,102511.38
2022-11-30T21:09:56.724Z,102513.19
2022-11-30T21:12:58.278Z,102503.50
2022-11-30T21:16:01.124Z,102509.66
2022-11-30T21:19:05.141Z,102513.19
2022-11-30T21:22:06.698Z,102514.03
2022-11-30T21:25:08.648Z,102515.78
2022-11-30T21:28:10.232Z,102514.84
2022-11-30T21:31:12.925Z,102510.47
2022-11-30T21:34:14.780Z,102520.19
2022-11-30T21:37:16.391Z,102518.47
2022-11-30T21:40:17.916Z,102519.38
2022-11-30T21:43:19.470Z,102520.22
2022-11-30T21:46:21.663Z,102519.31
2022-11-30T21:49:23.753Z,102523.66
2022-11-30T21:52:26.250Z,102525.41
2022-11-30T21:55:27.961Z,102521.06
2022-11-30T21:58:32.314Z,102524.59
2022-11-30T22:01:39.319Z,102528.09
2022-11-30T22:04:41.034Z,102522.88
2022-11-30T22:07:42.583Z,102519.38
2022-11-30T22:10:44.220Z,102522.03
2022-11-30T22:13:50.232Z,102516.75
2022-11-30T22:16:51.931Z,102521.97
2022-11-30T22:19:53.444Z,102527.22
2022-11-30T22:22:55.008Z,102522.75
2022-11-30T22:26:26.402Z,102526.16
2022-11-30T22:29:29.481Z,102527.91
2022-11-30T22:32:31.054Z,102519.88
2022-11-30T22:35:33.255Z,102526.97
2022-11-30T22:38:35.331Z,102526.13
2022-11-30T22:41:37.462Z,102528.84
2022-11-30T22:44:39.043Z,102530.63
2022-11-30T22:47:40.810Z,102538.56
2022-11-30T22:50:42.364Z,102534.19
2022-11-30T22:53:44.115Z,102535.97
2022-11-30T22:56:46.598Z,102531.56
2022-11-30T22:59:48.636Z,102528.91
2022-11-30T23:02:50.420Z,102527.13
2022-11-30T23:05:52.323Z,102531.56
2022-11-30T23:08:54.107Z,102531.53
2022-11-30T23:11:55.673Z,102534.19
2022-11-30T23:14:57.513Z,102535.09
2022-11-30T23:17:59.380Z,102529.41
2022-11-30T23:21:09.960Z,102534.75
2022-11-30T23:24:17.543Z,102531.31
2022-11-30T23:27:19.108Z,102538.44
2022-11-30T23:30:20.653Z,102531.53
2022-11-30T23:33:22.181Z,102537.75
2022-11-30T23:36:24.119Z,102531.66
2022-11-30T23:39:25.718Z,102537.00
2022-11-30T23:42:27.267Z,102532.66
2022-11-30T23:45:28.768Z,102531.81
2022-11-30T23:48:30.427Z,102532.75
2022-11-30T23:51:32.183Z,102533.69
2022-11-30T23:54:33.698Z,102524.94
2022-11-30T23:57:35.235Z,102526.75
